Ohana — WDI4967 — position and weather

sailwx.info

Track history (hours):
 
Tides and Currents Weather Stations Pressure Air Temp Water Temp Dewpoint Dewpoint Depression Visibility Wind Speed Wind Dir Waves Ship Positions

Ohana

Owner: Gulfstar marine, LLC, San Diego, CA. More information available from US FCC via Universal Licensing System and Coast Guard Vessel Documentation Center.

Last reported at 2017-Sep-13 20:23 UTC. Time now 2017-Sep-25 15:09 UTC.
Position N 32°41' W 117°17'.
Warning: this ship's position is 11 days out of date.

Type: Sailing vessel. MMSI: 367703840.

Date/timePositionNaut miles runAvg speedWind from/ knotsBaromVisibWave heightAir tempDewpointWater temp
2017-Sep-13 20:23N 32°41' W 117°17'3 8.5
2017-Sep-13 20:00N 32°44' W 117°18'4 8.5
2017-Sep-13 19:30N 32°48' W 117°21'4 8.4
2017-Sep-13 19:01N 32°51' W 117°23'4 8.2
2017-Sep-13 18:30N 32°55' W 117°25'4 8.1
2017-Sep-13 18:00N 32°59' W 117°27'4 7.7
2017-Sep-13 17:30N 33°02' W 117°28'4 7.7
2017-Sep-13 17:01N 33°06' W 117°30'4 7.7
2017-Sep-13 16:30N 33°09' W 117°32'4 7.2
2017-Sep-13 15:59N 33°13' W 117°34'4 7.6
2017-Sep-13 15:30N 33°16' W 117°36'4 7.8
2017-Sep-13 14:59N 33°20' W 117°38'5 7.2
2017-Sep-13 14:20N 33°24' W 117°40'3 7.6
2017-Sep-13 13:59N 33°27' W 117°41'1 0.1
2017-Sep-12 21:58N 33°28' W 117°42'0 0.0
2017-Sep-12 21:30N 33°28' W 117°42'2 3.8
2017-Sep-12 21:00N 33°26' W 117°41'3 4.7
2017-Sep-12 20:27N 33°26' W 117°44'13 0.3
2017-Sep-10 18:09N 33°36' W 117°54'1 4.9
2017-Sep-10 17:57N 33°36' W 117°53'3 6.6
2017-Sep-10 17:30N 33°34' W 117°56'4 7.7
2017-Sep-10 17:00N 33°33' W 118°00'7 8.2
2017-Sep-10 16:10N 33°32' W 118°08'1 8.3
2017-Sep-10 16:00N 33°31' W 118°10'4 8.0
2017-Sep-10 15:29N 33°30' W 118°15'4 7.9
2017-Sep-10 15:00N 33°29' W 118°19'  
Track history (hours):
 
Tides and Currents Weather Stations Pressure Air Temp Water Temp Dewpoint Dewpoint Depression Visibility Wind Speed Wind Dir Waves Ship Positions

Ohana

Owner: Gulfstar marine, LLC, San Diego, CA. More information available from US FCC via Universal Licensing System and Coast Guard Vessel Documentation Center.

Last reported at 2017-Sep-13 20:23 UTC. Time now 2017-Sep-25 15:09 UTC.
Position N 32°41' W 117°17'.
Warning: this ship's position is 11 days out of date.

Type: Sailing vessel. MMSI: 367703840.

Date/timePositionNaut miles runAvg speedWind from/ knotsBaromVisibWave heightAir tempDewpointWater temp
2017-Sep-13 20:23N 32°41' W 117°17'3 8.5
2017-Sep-13 20:00N 32°44' W 117°18'4 8.5
2017-Sep-13 19:30N 32°48' W 117°21'4 8.4
2017-Sep-13 19:01N 32°51' W 117°23'4 8.2
2017-Sep-13 18:30N 32°55' W 117°25'4 8.1
2017-Sep-13 18:00N 32°59' W 117°27'4 7.7
2017-Sep-13 17:30N 33°02' W 117°28'4 7.7
2017-Sep-13 17:01N 33°06' W 117°30'4 7.7
2017-Sep-13 16:30N 33°09' W 117°32'4 7.2
2017-Sep-13 15:59N 33°13' W 117°34'4 7.6
2017-Sep-13 15:30N 33°16' W 117°36'4 7.8
2017-Sep-13 14:59N 33°20' W 117°38'5 7.2
2017-Sep-13 14:20N 33°24' W 117°40'3 7.6
2017-Sep-13 13:59N 33°27' W 117°41'1 0.1
2017-Sep-12 21:58N 33°28' W 117°42'0 0.0
2017-Sep-12 21:30N 33°28' W 117°42'2 3.8
2017-Sep-12 21:00N 33°26' W 117°41'3 4.7
2017-Sep-12 20:27N 33°26' W 117°44'13 0.3
2017-Sep-10 18:09N 33°36' W 117°54'1 4.9
2017-Sep-10 17:57N 33°36' W 117°53'3 6.6
2017-Sep-10 17:30N 33°34' W 117°56'4 7.7
2017-Sep-10 17:00N 33°33' W 118°00'7 8.2
2017-Sep-10 16:10N 33°32' W 118°08'1 8.3
2017-Sep-10 16:00N 33°31' W 118°10'4 8.0
2017-Sep-10 15:29N 33°30' W 118°15'4 7.9
2017-Sep-10 15:00N 33°29' W 118°19'  

Dump ship's entire track history